Time;durP1;ratioP1;P1;durP2;ratioP2;P2;SDS_P1;SDS_P2;PMS_P1;PMS_P2;Temp;Humidity;BMP_temperature;BMP_pressure;BME280_temperature;BME280_humidity;BME280_pressure;Samples;Min_cycle;Max_cycle;Signal;HPM_P1;HPM_P2
2023/07/02 00:01:19;;;;;;;5.55;1.70;;;;;;;15.96;100.00;100219.88;6228201;28;20050;-76
2023/07/02 00:04:20;;;;;;;5.60;2.70;;;;;;;15.90;100.00;100223.06;6228369;28;20050;-75
2023/07/02 00:07:25;;;;;;;6.78;2.10;;;;;;;15.96;100.00;100227.00;6229937;28;20054;-75
2023/07/02 00:10:27;;;;;;;3.38;1.88;;;;;;;16.00;100.00;100225.78;6216016;28;20078;-74
2023/07/02 00:13:28;;;;;;;4.72;2.35;;;;;;;15.99;100.00;100216.16;6214061;28;20057;-74
2023/07/02 00:16:29;;;;;;;5.07;2.33;;;;;;;15.98;100.00;100215.28;6228000;28;20049;-74
2023/07/02 00:19:31;;;;;;;3.63;1.80;;;;;;;15.93;100.00;100219.31;6227821;28;21236;-74
2023/07/02 00:22:36;;;;;;;2.88;1.73;;;;;;;15.91;100.00;100210.66;6227726;28;20038;-74
2023/07/02 00:25:37;;;;;;;3.78;1.70;;;;;;;15.88;100.00;100214.38;6227968;28;20057;-75
2023/07/02 00:28:39;;;;;;;2.85;1.85;;;;;;;15.95;100.00;100212.91;6227838;28;20049;-75
2023/07/02 00:31:40;;;;;;;2.85;1.90;;;;;;;15.84;100.00;100204.19;6227226;28;20049;-75
2023/07/02 00:34:41;;;;;;;2.95;1.70;;;;;;;15.90;100.00;100201.88;6227657;28;20448;-74
2023/07/02 00:37:44;;;;;;;2.13;1.80;;;;;;;15.89;100.00;100196.69;6223392;28;20055;-75
2023/07/02 00:40:45;;;;;;;3.97;1.88;;;;;;;15.95;100.00;100201.47;6202551;28;20069;-74
2023/07/02 00:43:47;;;;;;;4.90;1.92;;;;;;;15.94;100.00;100199.78;6227181;28;20046;-73
2023/07/02 00:46:48;;;;;;;5.88;2.10;;;;;;;15.87;100.00;100201.28;6203153;28;20073;-73
2023/07/02 00:49:49;;;;;;;3.92;2.03;;;;;;;15.83;100.00;100192.75;6202908;28;20050;-75
2023/07/02 00:52:53;;;;;;;3.55;1.67;;;;;;;15.87;100.00;100198.63;6203128;28;20427;-74
2023/07/02 00:55:55;;;;;;;2.40;1.50;;;;;;;15.90;100.00;100203.69;6210858;28;20051;-73
2023/07/02 00:58:58;;;;;;;7.03;1.83;;;;;;;15.88;100.00;100214.38;6209889;28;20383;-77
2023/07/02 01:01:59;;;;;;;3.00;1.77;;;;;;;15.89;100.00;100213.41;6218503;28;20057;-74
2023/07/02 01:05:01;;;;;;;6.75;1.90;;;;;;;15.95;100.00;100218.22;6225441;28;20061;-75
2023/07/02 01:08:05;;;;;;;5.85;2.17;;;;;;;15.95;100.00;100215.56;6228295;28;20057;-75
2023/07/02 01:11:06;;;;;;;6.25;2.72;;;;;;;15.97;100.00;100218.06;6202305;28;20069;-75
2023/07/02 01:14:12;;;;;;;6.68;2.08;;;;;;;15.89;100.00;100215.22;6218008;28;20050;-75
2023/07/02 01:17:19;;;;;;;4.55;1.83;;;;;;;15.82;100.00;100219.38;6218710;28;20057;-75
2023/07/02 01:20:21;;;;;;;6.43;1.95;;;;;;;15.70;100.00;100214.13;6233919;28;20060;-75
2023/07/02 01:23:23;;;;;;;5.03;2.13;;;;;;;15.73;100.00;100216.53;6201987;28;20053;-75
2023/07/02 01:26:24;;;;;;;3.72;2.42;;;;;;;15.64;100.00;100212.00;6212191;28;20084;-74
2023/07/02 01:29:26;;;;;;;8.00;1.98;;;;;;;15.69;100.00;100211.59;6226500;28;20058;-75
2023/07/02 01:32:27;;;;;;;6.30;2.03;;;;;;;15.72;100.00;100208.72;6226006;28;20354;-74
2023/07/02 01:35:30;;;;;;;3.47;2.10;;;;;;;15.79;100.00;100204.56;6226393;28;20442;-75
2023/07/02 01:38:31;;;;;;;9.98;2.60;;;;;;;15.65;100.00;100203.06;6231816;28;20046;-75
2023/07/02 01:41:38;;;;;;;5.57;2.33;;;;;;;15.56;100.00;100205.63;6217625;28;20050;-77
2023/07/02 01:44:39;;;;;;;4.72;2.20;;;;;;;15.60;100.00;100199.94;6225387;28;20079;-75
2023/07/02 01:47:41;;;;;;;5.03;2.78;;;;;;;15.65;100.00;100208.38;6210390;28;20054;-76
2023/07/02 01:50:43;;;;;;;2.15;1.83;;;;;;;15.65;100.00;100210.19;6222078;28;20053;-76
2023/07/02 01:53:46;;;;;;;10.43;2.70;;;;;;;15.59;100.00;100211.50;6229581;28;20061;-75
2023/07/02 01:56:47;;;;;;;3.53;2.10;;;;;;;15.63;100.00;100231.47;6225836;28;20057;-74
2023/07/02 01:59:49;;;;;;;3.03;2.30;;;;;;;15.71;100.00;100236.16;6214748;28;20046;-75
2023/07/02 02:02:50;;;;;;;4.07;2.30;;;;;;;15.68;100.00;100242.56;6225374;28;20045;-74
2023/07/02 02:05:53;;;;;;;6.95;2.38;;;;;;;15.83;100.00;100248.38;6226007;28;20042;-74
2023/07/02 02:08:54;;;;;;;8.52;3.22;;;;;;;15.62;100.00;100243.00;6226113;28;20054;-73
2023/07/02 02:11:55;;;;;;;9.88;2.53;;;;;;;15.48;100.00;100240.66;6225589;28;20056;-74
2023/07/02 02:14:57;;;;;;;8.13;2.45;;;;;;;15.41;100.00;100239.50;6220131;28;20054;-75
2023/07/02 02:17:58;;;;;;;6.32;2.28;;;;;;;15.43;100.00;100242.84;6201299;28;20058;-74
2023/07/02 02:21:01;;;;;;;4.95;2.47;;;;;;;15.53;100.00;100249.06;6215815;28;20057;-75
2023/07/02 02:24:02;;;;;;;3.97;2.42;;;;;;;15.42;100.00;100243.81;6225273;28;20057;-75
2023/07/02 02:27:04;;;;;;;9.88;3.33;;;;;;;15.48;100.00;100246.78;6227338;28;20051;-75
2023/07/02 02:30:08;;;;;;;5.13;2.97;;;;;;;15.38;100.00;100247.69;6208420;28;20358;-75
2023/07/02 02:33:09;;;;;;;3.83;2.65;;;;;;;15.35;100.00;100242.63;6224884;28;20366;-75
2023/07/02 02:36:12;;;;;;;3.85;2.30;;;;;;;15.36;100.00;100231.94;6224769;28;20072;-75
2023/07/02 02:39:13;;;;;;;6.10;3.13;;;;;;;15.31;100.00;100230.63;6225825;28;20046;-75
2023/07/02 02:42:15;;;;;;;2.60;2.25;;;;;;;15.44;100.00;100229.50;6216567;28;20056;-75
2023/07/02 02:45:16;;;;;;;4.13;2.92;;;;;;;15.38;100.00;100239.75;6225776;28;20360;-75
2023/07/02 02:48:18;;;;;;;7.30;2.75;;;;;;;15.45;100.00;100235.63;6224731;28;20354;-76
2023/07/02 02:51:21;;;;;;;3.55;2.58;;;;;;;15.51;100.00;100236.94;6233362;28;20052;-75
2023/07/02 02:54:22;;;;;;;3.65;2.65;;;;;;;15.45;100.00;100227.69;6221019;28;20113;-75
2023/07/02 02:57:24;;;;;;;3.85;3.00;;;;;;;15.40;100.00;100220.13;6217044;28;20061;-75
2023/07/02 03:00:25;;;;;;;8.68;2.78;;;;;;;15.41;100.00;100224.44;6217049;28;20075;-74
2023/07/02 03:03:26;;;;;;;8.98;2.75;;;;;;;15.47;100.00;100221.28;6226611;28;20050;-74
2023/07/02 03:06:30;;;;;;;5.57;2.85;;;;;;;15.43;100.00;100222.50;6217699;28;20461;-75
2023/07/02 03:09:31;;;;;;;8.18;3.25;;;;;;;15.39;100.00;100225.53;6223792;28;20458;-75
2023/07/02 03:12:32;;;;;;;9.32;2.83;;;;;;;15.34;100.00;100233.84;6235186;28;20433;-75
2023/07/02 03:15:34;;;;;;;6.10;3.10;;;;;;;15.30;100.00;100232.41;6218583;28;20046;-75
2023/07/02 03:18:35;;;;;;;4.22;2.85;;;;;;;15.36;100.00;100233.75;6218739;28;20049;-75
2023/07/02 03:21:38;;;;;;;4.40;3.17;;;;;;;15.43;100.00;100222.50;6228808;28;20042;-75
2023/07/02 03:24:39;;;;;;;5.05;3.28;;;;;;;15.46;100.00;100227.56;6229420;28;20052;-75
2023/07/02 03:27:40;;;;;;;3.95;2.72;;;;;;;15.23;100.00;100225.94;6232755;28;20057;-75
2023/07/02 03:30:42;;;;;;;3.92;3.03;;;;;;;15.35;100.00;100226.75;6225609;28;20049;-75
2023/07/02 03:33:43;;;;;;;7.55;3.75;;;;;;;15.26;100.00;100219.56;6221425;28;20516;-76
2023/07/02 03:36:46;;;;;;;8.20;3.70;;;;;;;15.26;100.00;100217.78;6187822;28;20047;-74
2023/07/02 03:39:47;;;;;;;5.47;3.28;;;;;;;15.36;100.00;100217.84;6192492;28;20555;-75
2023/07/02 03:42:48;;;;;;;7.50;3.45;;;;;;;15.26;100.00;100224.84;6196605;28;20038;-75
2023/07/02 03:45:50;;;;;;;6.03;3.50;;;;;;;15.37;100.00;100227.47;6211192;28;20050;-74
2023/07/02 03:48:51;;;;;;;9.23;4.07;;;;;;;15.43;100.00;100232.25;6217456;28;20048;-75
2023/07/02 03:51:54;;;;;;;5.43;3.20;;;;;;;15.51;100.00;100239.59;6210083;28;20054;-75
2023/07/02 03:54:55;;;;;;;7.82;3.08;;;;;;;15.34;100.00;100228.56;6212922;28;20339;-75
2023/07/02 03:57:56;;;;;;;6.60;3.30;;;;;;;15.46;100.00;100232.00;6207860;28;20053;-74
2023/07/02 04:00:58;;;;;;;7.30;3.33;;;;;;;15.39;100.00;100239.59;6192634;28;20506;-75
2023/07/02 04:03:59;;;;;;;8.20;3.72;;;;;;;15.43;100.00;100230.44;6189859;28;20439;-76
2023/07/02 04:07:02;;;;;;;5.85;4.07;;;;;;;15.39;100.00;100231.66;6189731;28;20050;-74
2023/07/02 04:10:03;;;;;;;6.18;3.50;;;;;;;15.39;100.00;100242.25;6190867;28;20046;-74
2023/07/02 04:13:05;;;;;;;5.88;3.60;;;;;;;15.47;100.00;100244.28;6187772;28;20057;-74
2023/07/02 04:16:06;;;;;;;9.20;3.78;;;;;;;15.46;100.00;100247.91;6188878;28;20452;-75
2023/07/02 04:19:08;;;;;;;5.43;3.75;;;;;;;15.46;100.00;100255.84;6213618;28;20060;-74
2023/07/02 04:22:10;;;;;;;11.45;4.28;;;;;;;15.44;100.00;100253.34;6212163;28;20054;-74
2023/07/02 04:25:14;;;;;;;10.73;3.80;;;;;;;15.46;100.00;100243.44;6211422;28;20046;-74
2023/07/02 04:28:16;;;;;;;8.30;4.07;;;;;;;15.44;100.00;100250.69;6212496;28;20133;-74
2023/07/02 04:31:19;;;;;;;7.70;4.40;;;;;;;15.48;100.00;100245.97;6211768;28;20377;-74
2023/07/02 04:34:21;;;;;;;11.25;3.97;;;;;;;15.42;100.00;100249.97;6218582;28;20053;-74
2023/07/02 04:37:24;;;;;;;6.78;4.20;;;;;;;15.37;100.00;100253.94;6217776;28;20057;-76
2023/07/02 04:40:25;;;;;;;8.63;4.07;;;;;;;15.45;100.00;100255.00;6203145;28;20434;-75
2023/07/02 04:43:29;;;;;;;7.35;3.90;;;;;;;15.55;100.00;100256.91;6202869;28;20054;-75
2023/07/02 04:46:30;;;;;;;11.90;3.58;;;;;;;15.56;100.00;100267.38;6203071;28;20137;-74
2023/07/02 04:49:32;;;;;;;9.80;3.90;;;;;;;15.57;100.00;100260.25;6213175;28;20437;-75
2023/07/02 04:52:34;;;;;;;7.00;3.83;;;;;;;15.57;100.00;100266.38;6226974;28;20049;-74
2023/07/02 04:55:36;;;;;;;5.50;3.22;;;;;;;15.57;100.00;100262.91;6218034;28;20056;-74
2023/07/02 04:58:37;;;;;;;9.80;4.22;;;;;;;15.53;100.00;100269.41;6216245;28;20057;-74
2023/07/02 05:01:38;;;;;;;6.60;3.85;;;;;;;15.52;100.00;100276.53;6202177;28;20046;-74
2023/07/02 05:04:40;;;;;;;15.60;4.35;;;;;;;15.49;100.00;100276.78;6205991;28;20322;-74
2023/07/02 05:07:42;;;;;;;6.15;3.90;;;;;;;15.51;100.00;100281.97;6226900;28;20346;-74
2023/07/02 05:10:44;;;;;;;17.70;3.90;;;;;;;15.52;100.00;100284.47;6215856;28;20108;-73
2023/07/02 05:13:45;;;;;;;9.60;3.67;;;;;;;15.57;100.00;100284.09;6222090;28;20042;-72
2023/07/02 05:16:46;;;;;;;10.73;3.72;;;;;;;15.59;100.00;100276.88;6226903;28;20042;-73
2023/07/02 05:19:48;;;;;;;8.27;3.05;;;;;;;15.59;100.00;100283.03;6222439;28;20466;-74
2023/07/02 05:22:50;;;;;;;5.93;2.97;;;;;;;15.64;100.00;100282.66;6201697;28;20043;-73
2023/07/02 05:25:52;;;;;;;18.33;3.92;;;;;;;15.63;100.00;100286.25;6202249;28;20046;-72
2023/07/02 05:28:53;;;;;;;10.23;3.00;;;;;;;15.63;100.00;100280.97;6201727;28;20042;-74
2023/07/02 05:31:54;;;;;;;10.18;3.20;;;;;;;15.65;100.00;100287.00;6215085;28;20048;-73
2023/07/02 05:34:56;;;;;;;9.48;4.05;;;;;;;15.69;100.00;100291.91;6226333;28;20046;-74
2023/07/02 05:37:58;;;;;;;11.02;3.60;;;;;;;15.79;100.00;100285.88;6226586;28;20053;-74
2023/07/02 05:41:00;;;;;;;6.50;2.92;;;;;;;15.80;100.00;100291.03;6226348;28;20061;-73
2023/07/02 05:44:01;;;;;;;8.73;3.13;;;;;;;15.72;100.00;100291.69;6226150;28;20045;-74
2023/07/02 05:47:03;;;;;;;13.05;2.97;;;;;;;15.78;100.00;100292.13;6225864;28;20049;-76
2023/07/02 05:50:05;;;;;;;12.35;4.03;;;;;;;15.83;100.00;100296.09;6223188;28;20069;-73
2023/07/02 05:53:09;;;;;;;14.00;3.40;;;;;;;15.84;100.00;100299.56;6225271;28;20057;-75
2023/07/02 05:56:10;;;;;;;17.85;3.95;;;;;;;15.85;100.00;100299.47;6221649;28;20136;-73
2023/07/02 05:59:14;;;;;;;8.60;3.65;;;;;;;15.84;100.00;100294.28;6226091;28;20052;-74
2023/07/02 06:02:15;;;;;;;13.65;3.58;;;;;;;15.89;100.00;100307.97;6225668;28;20060;-71
2023/07/02 06:05:17;;;;;;;14.18;3.60;;;;;;;15.97;100.00;100303.72;6226073;28;20445;-73
2023/07/02 06:08:19;;;;;;;8.05;3.28;;;;;;;16.01;100.00;100306.97;6266272;23;20344;-75
2023/07/02 06:11:21;;;;;;;11.75;3.63;;;;;;;16.01;100.00;100306.97;6249964;28;20053;-76
2023/07/02 06:14:25;;;;;;;13.23;3.88;;;;;;;15.99;100.00;100306.28;6250151;28;20068;-76
2023/07/02 06:17:26;;;;;;;9.32;3.30;;;;;;;15.97;100.00;100313.50;6250176;28;20136;-76
2023/07/02 06:20:27;;;;;;;8.70;3.03;;;;;;;15.97;100.00;100318.78;6249941;28;20369;-76
2023/07/02 06:23:40;;;;;;;15.88;3.90;;;;;;;16.05;100.00;100321.66;6249891;28;20045;-76
2023/07/02 06:26:41;;;;;;;14.43;4.68;;;;;;;16.11;100.00;100320.28;6249916;28;20041;-76
2023/07/02 06:29:42;;;;;;;11.57;3.53;;;;;;;16.13;100.00;100316.56;6250156;28;20041;-76
2023/07/02 06:32:44;;;;;;;14.63;4.40;;;;;;;16.16;100.00;100307.50;6249868;28;20045;-75
2023/07/02 06:35:45;;;;;;;12.45;3.83;;;;;;;16.17;100.00;100325.94;6249892;28;20049;-76
2023/07/02 06:38:48;;;;;;;11.32;3.80;;;;;;;16.18;100.00;100324.97;6250464;28;20046;-76
2023/07/02 06:41:49;;;;;;;12.45;4.07;;;;;;;16.20;100.00;100333.63;6254294;28;20045;-77
2023/07/02 06:44:50;;;;;;;13.23;4.15;;;;;;;16.22;100.00;100336.16;6254755;28;20037;-75
2023/07/02 06:47:52;;;;;;;12.02;4.65;;;;;;;16.24;100.00;100342.16;6254500;28;20061;-75
2023/07/02 06:50:53;;;;;;;13.35;3.50;;;;;;;16.32;100.00;100344.19;6254685;28;20048;-76
2023/07/02 06:53:56;;;;;;;14.23;4.22;;;;;;;16.34;100.00;100347.53;6254122;28;20037;-76
2023/07/02 06:56:57;;;;;;;7.90;3.88;;;;;;;16.35;100.00;100339.47;6219357;28;20053;-76
2023/07/02 06:59:59;;;;;;;7.28;3.75;;;;;;;16.38;100.00;100341.84;6228158;28;20593;-76
2023/07/02 07:03:01;;;;;;;13.02;4.13;;;;;;;16.49;100.00;100344.44;6230379;28;20424;-72
2023/07/02 07:06:02;;;;;;;18.90;5.18;;;;;;;16.45;100.00;100347.50;6213133;28;20054;-71
2023/07/02 07:09:05;;;;;;;12.95;3.92;;;;;;;16.49;100.00;100349.75;6215888;28;20053;-76
2023/07/02 07:12:07;;;;;;;23.38;4.40;;;;;;;16.47;100.00;100356.97;6235597;28;20042;-77
2023/07/02 07:15:10;;;;;;;14.75;4.30;;;;;;;16.55;100.00;100359.00;6253949;28;20053;-75
2023/07/02 07:18:12;;;;;;;23.95;4.82;;;;;;;16.59;100.00;100357.78;6253794;28;20049;-76
2023/07/02 07:21:13;;;;;;;14.77;3.90;;;;;;;16.68;100.00;100354.34;6252647;28;20046;-76
2023/07/02 07:24:16;;;;;;;15.02;3.38;;;;;;;16.78;100.00;100369.50;6253841;28;20048;-75
2023/07/02 07:27:17;;;;;;;14.25;3.75;;;;;;;16.76;100.00;100366.13;6253560;28;20072;-76
2023/07/02 07:30:22;;;;;;;19.52;4.38;;;;;;;16.74;100.00;100374.22;6253924;28;20053;-75
2023/07/02 07:33:23;;;;;;;11.27;3.38;;;;;;;16.87;100.00;100371.38;6253489;28;20056;-75
2023/07/02 07:36:24;;;;;;;12.98;3.85;;;;;;;16.87;100.00;100372.22;6253754;28;20056;-75
2023/07/02 07:39:27;;;;;;;12.50;3.72;;;;;;;16.87;100.00;100379.34;6253489;28;20053;-75
2023/07/02 07:42:28;;;;;;;10.73;3.85;;;;;;;16.92;100.00;100387.75;6252862;28;20335;-76
2023/07/02 07:45:30;;;;;;;17.80;3.95;;;;;;;16.94;100.00;100378.69;6253429;28;20056;-76
2023/07/02 07:48:31;;;;;;;11.85;4.05;;;;;;;16.90;100.00;100371.13;6253031;28;20330;-76
2023/07/02 07:51:32;;;;;;;10.38;3.80;;;;;;;16.88;100.00;100381.84;6252711;28;20052;-76
2023/07/02 07:54:35;;;;;;;12.80;4.45;;;;;;;16.99;100.00;100376.47;6253011;28;20430;-75
2023/07/02 07:57:38;;;;;;;19.63;3.92;;;;;;;17.02;100.00;100387.78;6252976;28;20111;-75
2023/07/02 08:00:39;;;;;;;11.52;3.58;;;;;;;16.97;100.00;100385.53;6244606;28;20057;-75
2023/07/02 08:03:40;;;;;;;13.32;4.05;;;;;;;16.96;100.00;100402.44;6252720;28;20045;-76
2023/07/02 08:06:42;;;;;;;11.27;3.60;;;;;;;17.00;100.00;100395.91;6241499;28;20049;-76
2023/07/02 08:09:44;;;;;;;9.57;3.70;;;;;;;16.98;100.00;100403.97;6239799;28;20049;-76
2023/07/02 08:12:47;;;;;;;12.93;3.85;;;;;;;16.89;100.00;100399.44;6240826;28;20046;-75
2023/07/02 08:15:48;;;;;;;10.20;3.75;;;;;;;16.91;100.00;100408.13;6239914;28;20056;-76
2023/07/02 08:18:49;;;;;;;20.02;3.70;;;;;;;16.91;100.00;100413.44;6240412;28;20049;-76
2023/07/02 08:21:51;;;;;;;12.25;3.17;;;;;;;16.87;100.00;100406.72;6239943;28;20037;-76
2023/07/02 08:24:54;;;;;;;17.73;4.38;;;;;;;16.92;100.00;100409.81;6239894;28;20038;-75
2023/07/02 08:27:55;;;;;;;10.68;3.78;;;;;;;17.01;100.00;100404.69;6240838;28;20048;-76
2023/07/02 08:30:57;;;;;;;8.68;3.58;;;;;;;17.21;100.00;100407.34;6239390;28;20460;-75
2023/07/02 08:33:58;;;;;;;17.70;4.22;;;;;;;17.32;100.00;100403.72;6240936;28;20056;-77
2023/07/02 08:36:59;;;;;;;15.50;4.10;;;;;;;17.36;100.00;100405.16;6238579;28;20357;-76
2023/07/02 08:40:04;;;;;;;10.02;3.40;;;;;;;17.45;100.00;100408.81;6241057;28;20050;-76
2023/07/02 08:43:06;;;;;;;8.55;4.45;;;;;;;17.57;100.00;100409.53;6237380;28;20042;-77
2023/07/02 08:46:08;;;;;;;9.80;3.05;;;;;;;17.52;100.00;100422.41;6241871;28;20057;-76
2023/07/02 08:49:10;;;;;;;10.93;3.30;;;;;;;17.48;100.00;100411.19;6236855;28;20452;-77
2023/07/02 08:52:11;;;;;;;9.00;3.30;;;;;;;17.60;100.00;100417.25;6242133;28;20041;-76
2023/07/02 08:55:14;;;;;;;7.63;3.15;;;;;;;17.65;100.00;100421.19;6236255;28;20053;-77
2023/07/02 08:58:15;;;;;;;13.25;3.47;;;;;;;17.50;100.00;100423.38;6242729;28;20049;-75
2023/07/02 09:01:17;;;;;;;12.20;3.78;;;;;;;17.54;100.00;100417.81;6235121;28;20886;-76
2023/07/02 09:04:20;;;;;;;10.43;3.17;;;;;;;17.66;100.00;100425.50;6242730;28;20052;-75
2023/07/02 09:07:21;;;;;;;8.02;2.95;;;;;;;17.68;100.00;100433.38;6243067;28;20053;-77
2023/07/02 09:10:28;;;;;;;11.15;3.80;;;;;;;17.69;100.00;100433.22;6243096;28;20049;-78
2023/07/02 09:13:30;;;;;;;11.07;3.80;;;;;;;17.75;100.00;100429.22;6235718;28;20437;-76
2023/07/02 09:16:34;;;;;;;13.25;3.40;;;;;;;17.69;100.00;100435.88;6251369;28;20049;-78
2023/07/02 09:19:37;;;;;;;10.23;3.60;;;;;;;17.68;100.00;100444.00;6251263;28;20076;-75
2023/07/02 09:22:41;;;;;;;13.27;3.42;;;;;;;17.65;100.00;100438.94;6242691;28;20056;-76
2023/07/02 09:25:44;;;;;;;9.75;3.33;;;;;;;17.65;100.00;100437.13;6251048;28;20045;-77
2023/07/02 09:28:45;;;;;;;13.05;4.38;;;;;;;17.73;100.00;100426.69;6251077;28;20045;-77
2023/07/02 09:31:47;;;;;;;10.48;3.38;;;;;;;17.79;100.00;100441.25;6250515;28;20369;-76
2023/07/02 09:34:49;;;;;;;9.93;3.67;;;;;;;17.84;100.00;100433.72;6250732;28;20191;-77
2023/07/02 09:37:51;;;;;;;14.50;3.50;;;;;;;17.95;100.00;100430.94;6250677;28;20046;-77
2023/07/02 09:40:55;;;;;;;11.65;4.22;;;;;;;18.09;100.00;100442.19;6250824;28;20077;-76
2023/07/02 09:43:57;;;;;;;10.30;3.80;;;;;;;18.12;95.16;100429.44;6250530;28;20049;-77
2023/07/02 09:47:03;;;;;;;5.78;2.78;;;;;;;18.03;97.44;100435.56;6250580;28;20049;-77
2023/07/02 09:50:06;;;;;;;11.00;3.63;;;;;;;18.06;97.29;100423.81;6250728;28;20183;-76
2023/07/02 09:53:07;;;;;;;8.82;3.38;;;;;;;18.24;97.26;100428.31;6250198;28;20095;-76
2023/07/02 09:56:11;;;;;;;13.15;3.63;;;;;;;18.36;95.54;100431.69;6242460;28;20053;-76
2023/07/02 09:59:12;;;;;;;11.65;3.80;;;;;;;18.35;97.91;100450.44;6250375;28;20056;-76
2023/07/02 10:02:14;;;;;;;11.55;3.33;;;;;;;18.19;96.07;100440.34;6250020;28;20053;-78
2023/07/02 10:05:26;;;;;;;9.10;3.25;;;;;;;18.13;93.03;100449.75;6250212;28;20038;-79
2023/07/02 10:08:30;;;;;;;11.48;3.95;;;;;;;18.14;94.35;100450.56;6250175;28;20049;-76
2023/07/02 10:11:35;;;;;;;9.55;3.28;;;;;;;18.25;97.63;100456.59;6250060;28;20052;-76
2023/07/02 10:14:44;;;;;;;10.73;3.38;;;;;;;18.31;97.68;100481.00;6251995;28;20054;-76
2023/07/02 10:17:56;;;;;;;9.00;3.10;;;;;;;18.42;98.45;100465.72;6255459;28;20041;-77
2023/07/02 10:20:58;;;;;;;10.07;3.25;;;;;;;18.53;96.53;100462.09;6255495;28;20053;-77
2023/07/02 10:24:09;;;;;;;7.45;2.72;;;;;;;18.65;97.60;100492.06;6254968;28;20053;-75
2023/07/02 10:27:12;;;;;;;10.30;3.17;;;;;;;18.85;89.81;100464.50;6255298;28;20052;-79
2023/07/02 10:30:13;;;;;;;9.80;2.97;;;;;;;18.86;91.07;100475.97;6255049;28;20136;-77
2023/07/02 10:33:16;;;;;;;15.82;3.80;;;;;;;18.33;91.10;100474.53;6254606;28;20061;-76
2023/07/02 10:36:21;;;;;;;9.52;2.92;;;;;;;18.30;95.88;100477.47;6254945;28;20274;-76
2023/07/02 10:39:22;;;;;;;13.55;4.30;;;;;;;18.27;96.96;100474.25;6246927;28;20050;-77
2023/07/02 10:42:25;;;;;;;9.48;2.72;;;;;;;18.20;96.06;100476.63;6254687;28;20049;-79
2023/07/02 10:45:33;;;;;;;8.15;3.17;;;;;;;18.23;97.75;100481.66;6254583;28;20448;-78
2023/07/02 10:48:35;;;;;;;9.23;2.75;;;;;;;18.39;95.69;100470.47;6254739;28;20054;-76
2023/07/02 10:51:36;;;;;;;12.07;3.95;;;;;;;18.58;96.00;100475.81;6254148;28;20353;-77
2023/07/02 10:54:42;;;;;;;14.15;3.30;;;;;;;18.43;93.58;100472.72;6254526;28;20353;-77
2023/07/02 10:57:44;;;;;;;10.32;3.10;;;;;;;18.42;91.66;100495.00;6254383;28;20053;-77
2023/07/02 11:00:47;;;;;;;10.57;3.08;;;;;;;18.46;85.67;100506.19;6246492;28;20046;-78
2023/07/02 11:03:56;;;;;;;9.20;2.95;;;;;;;18.49;84.93;100477.50;6254127;28;20052;-77
2023/07/02 11:06:58;;;;;;;10.07;2.65;;;;;;;18.67;86.56;100487.44;6254395;28;20274;-78
2023/07/02 11:09:59;;;;;;;9.05;3.25;;;;;;;18.75;84.41;100488.44;6254239;28;20045;-77
2023/07/02 11:13:12;;;;;;;5.90;2.63;;;;;;;18.82;87.35;100475.41;6245529;28;20046;-79
2023/07/02 11:16:25;;;;;;;8.65;2.85;;;;;;;18.83;89.28;100470.94;6254174;28;20045;-77
2023/07/02 11:19:26;;;;;;;7.82;3.28;;;;;;;18.99;88.22;100490.69;6253940;28;20404;-77
2023/07/02 11:22:32;;;;;;;11.43;3.38;;;;;;;19.07;86.40;100473.13;6253695;28;20060;-76
2023/07/02 11:25:33;;;;;;;7.30;2.58;;;;;;;19.14;83.52;100468.91;6253456;28;20050;-76
2023/07/02 11:28:37;;;;;;;8.50;2.35;;;;;;;19.07;81.60;100483.78;6253855;28;20049;-78
2023/07/02 11:31:38;;;;;;;6.55;2.47;;;;;;;18.91;77.95;100481.72;6253395;28;20064;-77
2023/07/02 11:34:40;;;;;;;8.35;3.08;;;;;;;18.77;78.40;100488.31;6253643;28;20060;-78
2023/07/02 11:37:42;;;;;;;7.20;2.67;;;;;;;18.64;66.24;100482.41;6253459;28;20049;-78
2023/07/02 11:40:43;;;;;;;9.32;2.58;;;;;;;18.63;62.63;100500.19;6253795;28;20060;-78
2023/07/02 11:43:46;;;;;;;7.00;2.83;;;;;;;18.55;66.60;100512.50;6253083;28;20046;-76
2023/07/02 11:46:47;;;;;;;8.38;2.95;;;;;;;18.60;66.60;100516.44;6253477;28;20056;-78
2023/07/02 11:49:49;;;;;;;10.38;2.88;;;;;;;18.64;69.31;100506.34;6245025;28;20046;-77
2023/07/02 11:52:50;;;;;;;8.73;3.47;;;;;;;18.62;69.90;100510.97;6253106;28;20049;-77
2023/07/02 11:55:51;;;;;;;5.50;3.13;;;;;;;18.64;72.75;100503.69;6253102;28;20045;-79
2023/07/02 11:58:55;;;;;;;10.25;2.63;;;;;;;18.86;75.18;100502.59;6253381;28;20053;-76
2023/07/02 12:01:56;;;;;;;6.75;2.92;;;;;;;19.14;72.58;100509.72;6252973;28;20054;-77
2023/07/02 12:04:57;;;;;;;6.78;2.83;;;;;;;19.18;73.86;100497.78;6252759;28;20049;-77
2023/07/02 12:07:58;;;;;;;8.88;3.22;;;;;;;19.15;71.78;100513.22;6235178;23;20050;-74
2023/07/02 12:11:00;;;;;;;7.22;2.67;;;;;;;19.05;69.45;100521.22;6198774;28;20065;-78
2023/07/02 12:14:02;;;;;;;8.35;3.20;;;;;;;18.91;71.35;100519.84;6198556;28;20047;-76
2023/07/02 12:17:05;;;;;;;11.93;3.80;;;;;;;18.83;67.93;100513.53;6198419;28;20082;-73
2023/07/02 12:20:07;;;;;;;8.43;2.78;;;;;;;18.79;68.15;100525.44;6196291;28;20457;-73
2023/07/02 12:23:09;;;;;;;12.30;3.45;;;;;;;18.90;68.56;100530.63;6217337;28;20045;-77
2023/07/02 12:26:10;;;;;;;11.07;2.90;;;;;;;19.06;67.47;100536.22;6200351;28;20462;-78
2023/07/02 12:29:13;;;;;;;7.07;2.88;;;;;;;19.09;68.88;100525.28;6194760;28;20050;-74
2023/07/02 12:32:14;;;;;;;4.63;2.80;;;;;;;19.08;66.83;100512.13;6191637;28;20340;-74
2023/07/02 12:35:16;;;;;;;9.63;2.58;;;;;;;19.08;66.46;100523.63;6199163;28;20043;-74
2023/07/02 12:38:17;;;;;;;8.00;3.03;;;;;;;19.14;70.52;100522.19;6188826;28;20057;-74
2023/07/02 12:41:18;;;;;;;9.80;2.65;;;;;;;19.48;69.28;100526.06;6192591;28;20669;-73
2023/07/02 12:44:21;;;;;;;8.77;3.25;;;;;;;19.73;67.89;100529.09;6193756;28;20042;-74
2023/07/02 12:47:22;;;;;;;10.93;4.63;;;;;;;19.64;71.41;100516.63;6197359;28;20137;-74
2023/07/02 12:50:24;;;;;;;10.50;3.40;;;;;;;19.42;66.20;100528.44;6187108;28;20058;-73
2023/07/02 12:53:26;;;;;;;10.10;2.65;;;;;;;19.25;61.59;100530.84;6202723;28;20046;-72
2023/07/02 12:56:27;;;;;;;6.10;2.63;;;;;;;19.20;62.24;100535.78;6194327;28;20047;-73
2023/07/02 12:59:30;;;;;;;6.07;2.30;;;;;;;19.16;64.67;100547.69;6193199;28;20061;-74
2023/07/02 13:02:31;;;;;;;9.15;3.38;;;;;;;19.12;62.14;100545.47;6196312;28;20057;-76
2023/07/02 13:05:32;;;;;;;7.00;2.65;;;;;;;19.17;65.08;100545.91;6195674;28;20434;-74
2023/07/02 13:08:34;;;;;;;7.78;3.13;;;;;;;19.19;62.31;100557.25;6192220;28;20063;-74
2023/07/02 13:11:35;;;;;;;8.70;2.60;;;;;;;19.50;61.85;100564.06;6202297;28;20054;-76
2023/07/02 13:14:38;;;;;;;7.45;2.65;;;;;;;19.81;59.51;100550.53;6194689;28;20047;-73
2023/07/02 13:17:41;;;;;;;9.35;3.08;;;;;;;19.77;58.92;100555.31;6202349;28;20057;-74
2023/07/02 13:20:42;;;;;;;10.07;3.33;;;;;;;19.68;59.33;100553.53;6196486;28;20349;-74
2023/07/02 13:23:44;;;;;;;6.88;2.63;;;;;;;19.66;57.58;100559.97;6201907;28;20328;-74
2023/07/02 13:26:45;;;;;;;12.40;4.13;;;;;;;19.71;57.59;100555.03;6204847;28;20053;-73
2023/07/02 13:29:48;;;;;;;9.35;2.50;;;;;;;19.60;55.82;100558.72;6204787;28;20061;-73
2023/07/02 13:32:49;;;;;;;7.65;2.83;;;;;;;19.56;57.49;100559.13;6177942;28;20058;-73
2023/07/02 13:35:50;;;;;;;8.45;2.65;;;;;;;19.84;56.23;100558.22;6197180;28;20347;-74
2023/07/02 13:38:52;;;;;;;8.05;2.22;;;;;;;19.82;54.38;100568.22;6202188;28;20058;-77
2023/07/02 13:41:53;;;;;;;5.75;2.50;;;;;;;19.66;54.40;100557.31;6201724;28;20055;-74
2023/07/02 13:44:56;;;;;;;5.35;2.40;;;;;;;19.52;54.87;100554.06;6197796;28;20038;-74
2023/07/02 13:47:57;;;;;;;6.93;1.92;;;;;;;19.41;57.51;100556.09;6199674;28;20061;-75
2023/07/02 13:50:58;;;;;;;7.00;2.38;;;;;;;19.39;58.51;100558.88;6189323;28;20055;-74
2023/07/02 13:54:00;;;;;;;5.88;1.98;;;;;;;19.46;59.98;100560.00;6188954;28;20049;-72
2023/07/02 13:57:01;;;;;;;7.95;3.00;;;;;;;19.84;55.03;100566.22;6190897;28;20050;-74